createdAt,value
2023-02-17T00:00:53.904Z,1.18
2023-02-17T00:03:20.636Z,1.05
2023-02-17T00:05:48.916Z,1.04
2023-02-17T00:08:16.465Z,0.94
2023-02-17T00:10:43.001Z,0.82
2023-02-17T00:13:09.546Z,0.90
2023-02-17T00:15:38.070Z,1.00
2023-02-17T00:18:04.696Z,1.14
2023-02-17T00:20:31.225Z,1.30
2023-02-17T00:22:57.730Z,1.68
2023-02-17T00:25:24.420Z,1.51
2023-02-17T00:27:51.093Z,1.41
2023-02-17T00:30:18.045Z,1.58
2023-02-17T00:32:44.588Z,1.78
2023-02-17T00:35:12.541Z,1.73
2023-02-17T00:37:41.206Z,1.87
2023-02-17T00:40:07.947Z,1.55
2023-02-17T00:42:34.517Z,1.39
2023-02-17T00:45:01.057Z,1.17
2023-02-17T00:47:27.521Z,1.18
2023-02-17T00:49:54.029Z,1.33
2023-02-17T00:52:20.510Z,1.41
2023-02-17T00:54:47.004Z,1.31
2023-02-17T00:57:13.559Z,1.51
2023-02-17T00:59:40.236Z,1.64
2023-02-17T01:02:07.899Z,1.37
2023-02-17T01:04:36.000Z,1.52
2023-02-17T01:07:02.543Z,1.51
2023-02-17T01:09:29.031Z,1.43
2023-02-17T01:11:55.548Z,1.59
2023-02-17T01:14:22.101Z,1.71
2023-02-17T01:16:49.168Z,1.64
2023-02-17T01:19:17.630Z,1.48
2023-02-17T01:21:47.162Z,1.51
2023-02-17T01:24:13.879Z,1.32
2023-02-17T01:26:40.881Z,1.30
2023-02-17T01:29:07.841Z,1.59
2023-02-17T01:31:34.611Z,1.47
2023-02-17T01:34:02.098Z,1.52
2023-02-17T01:36:28.928Z,1.65
2023-02-17T01:38:55.911Z,1.49
2023-02-17T01:41:23.644Z,1.72
2023-02-17T01:44:07.309Z,1.79
2023-02-17T01:46:37.519Z,1.70
2023-02-17T01:49:11.367Z,1.55
2023-02-17T01:51:38.599Z,1.64
2023-02-17T01:54:24.337Z,1.76
2023-02-17T01:56:51.366Z,1.71
2023-02-17T01:59:21.181Z,1.63
2023-02-17T02:01:53.976Z,1.79
2023-02-17T02:04:22.499Z,1.84
2023-02-17T02:06:49.036Z,1.84
2023-02-17T02:09:18.889Z,1.74
2023-02-17T02:11:47.381Z,1.62
2023-02-17T02:14:16.365Z,1.95
2023-02-17T02:16:42.874Z,2.21
2023-02-17T02:19:28.042Z,2.58
2023-02-17T02:22:10.170Z,2.29
2023-02-17T02:24:39.503Z,2.32
2023-02-17T02:27:15.447Z,1.97
2023-02-17T02:29:54.169Z,1.61
2023-02-17T02:32:43.712Z,1.60
2023-02-17T02:35:26.420Z,1.81
2023-02-17T02:37:58.466Z,2.04
2023-02-17T02:40:28.775Z,2.18
2023-02-17T02:42:56.191Z,2.17
2023-02-17T02:45:22.833Z,2.26
2023-02-17T02:47:51.614Z,2.98
2023-02-17T02:50:42.020Z,2.73
2023-02-17T02:53:11.582Z,2.33
2023-02-17T02:55:50.476Z,2.23
2023-02-17T02:58:21.209Z,2.14
2023-02-17T03:00:57.160Z,2.05
2023-02-17T03:03:26.798Z,1.99
2023-02-17T03:06:13.930Z,1.86
2023-02-17T03:08:44.209Z,2.03
2023-02-17T03:11:11.428Z,1.82
2023-02-17T03:13:39.576Z,1.94
2023-02-17T03:16:08.874Z,1.96
2023-02-17T03:18:35.954Z,1.91
2023-02-17T03:21:06.526Z,1.87
2023-02-17T03:23:33.041Z,1.84
2023-02-17T03:25:59.548Z,1.83
2023-02-17T03:28:26.111Z,1.96
2023-02-17T03:30:52.676Z,1.96
2023-02-17T03:33:19.171Z,2.12
2023-02-17T03:35:45.716Z,2.00
2023-02-17T03:38:12.295Z,1.92
2023-02-17T03:40:38.808Z,1.94
2023-02-17T03:43:05.333Z,1.71
2023-02-17T03:45:31.970Z,1.98
2023-02-17T03:47:58.457Z,1.83
2023-02-17T03:50:25.318Z,1.74
2023-02-17T03:52:51.891Z,1.91
2023-02-17T03:55:18.400Z,1.93
2023-02-17T03:57:44.906Z,1.99
2023-02-17T04:00:11.606Z,1.83
2023-02-17T04:02:43.935Z,1.89
2023-02-17T04:05:10.628Z,1.97
2023-02-17T04:07:37.111Z,2.40
2023-02-17T04:10:05.874Z,2.27
2023-02-17T04:12:33.165Z,2.15
2023-02-17T04:14:59.641Z,2.12
2023-02-17T04:17:26.081Z,2.16
2023-02-17T04:19:52.533Z,2.30
2023-02-17T04:22:19.007Z,1.91
2023-02-17T04:24:45.493Z,1.95
2023-02-17T04:27:11.959Z,1.89
2023-02-17T04:29:38.426Z,1.87
2023-02-17T04:32:04.989Z,1.95
2023-02-17T04:34:31.618Z,1.98
2023-02-17T04:36:58.070Z,2.03
2023-02-17T04:39:24.543Z,2.32
2023-02-17T04:41:51.042Z,2.50
2023-02-17T04:44:17.552Z,2.37
2023-02-17T04:46:44.006Z,2.43
2023-02-17T04:49:10.506Z,3.42
2023-02-17T04:51:37.012Z,3.02
2023-02-17T04:54:03.536Z,2.69
2023-02-17T04:56:29.996Z,2.57
2023-02-17T04:58:56.463Z,2.38
2023-02-17T05:01:23.106Z,2.17
2023-02-17T05:03:49.816Z,2.22
2023-02-17T05:06:16.310Z,2.32
2023-02-17T05:08:42.826Z,2.30
2023-02-17T05:11:09.424Z,2.37
2023-02-17T05:13:35.879Z,2.18
2023-02-17T05:16:02.465Z,2.04
2023-02-17T05:18:28.965Z,1.98
2023-02-17T05:20:55.431Z,1.94
2023-02-17T05:23:21.945Z,2.45
2023-02-17T05:25:48.430Z,2.35
2023-02-17T05:28:14.970Z,2.30
2023-02-17T05:30:41.434Z,1.97
2023-02-17T05:33:07.920Z,1.65
2023-02-17T05:35:37.328Z,1.60
2023-02-17T05:38:03.829Z,1.66
2023-02-17T05:40:30.322Z,1.95
2023-02-17T05:42:56.872Z,1.77
2023-02-17T05:45:23.383Z,1.70
2023-02-17T05:47:49.846Z,1.69
2023-02-17T05:50:16.321Z,1.64
2023-02-17T05:52:42.845Z,1.57
2023-02-17T05:55:09.343Z,1.68
2023-02-17T05:57:35.876Z,1.36
2023-02-17T06:00:02.732Z,1.27
2023-02-17T06:02:38.520Z,1.30
2023-02-17T06:05:05.213Z,1.24
2023-02-17T06:07:31.749Z,1.15
2023-02-17T06:09:58.479Z,1.50
2023-02-17T06:12:25.112Z,1.35
2023-02-17T06:14:51.559Z,1.15
2023-02-17T06:17:18.002Z,1.28
2023-02-17T06:19:44.517Z,1.22
2023-02-17T06:22:10.972Z,1.10
2023-02-17T06:24:37.463Z,0.91
2023-02-17T06:27:03.928Z,0.72
2023-02-17T06:29:30.419Z,0.87
2023-02-17T06:31:56.961Z,1.54
2023-02-17T06:34:23.454Z,1.97
2023-02-17T06:36:49.951Z,2.22
2023-02-17T06:39:16.473Z,1.86
2023-02-17T06:41:42.993Z,2.05
2023-02-17T06:44:09.780Z,1.97
2023-02-17T06:46:36.252Z,1.97
2023-02-17T06:49:02.971Z,1.98
2023-02-17T06:51:29.501Z,2.21
2023-02-17T06:53:56.351Z,2.23
2023-02-17T06:56:22.908Z,2.39
2023-02-17T06:58:49.520Z,2.81
2023-02-17T07:01:17.301Z,3.10
2023-02-17T07:03:43.945Z,2.91
2023-02-17T07:06:10.473Z,3.11
2023-02-17T07:08:37.084Z,3.07
2023-02-17T07:11:10.574Z,3.34
2023-02-17T07:13:37.744Z,3.69
2023-02-17T07:16:04.691Z,4.12
2023-02-17T07:18:31.385Z,4.70
2023-02-17T07:20:57.929Z,4.92
2023-02-17T07:23:24.465Z,5.51
2023-02-17T07:25:50.940Z,6.28
2023-02-17T07:28:17.588Z,6.97
2023-02-17T07:30:44.496Z,6.51
2023-02-17T07:33:11.146Z,6.43
2023-02-17T07:35:44.098Z,6.41
2023-02-17T07:38:10.615Z,6.48
2023-02-17T07:40:37.156Z,6.86
2023-02-17T07:43:03.608Z,7.28
2023-02-17T07:45:30.157Z,7.68
2023-02-17T07:47:56.689Z,7.56
2023-02-17T07:50:23.211Z,7.66
2023-02-17T07:52:50.262Z,8.13
2023-02-17T07:55:16.988Z,8.17
2023-02-17T07:57:43.449Z,7.81
2023-02-17T08:00:10.956Z,7.34
2023-02-17T08:02:40.630Z,8.25
2023-02-17T08:05:07.186Z,8.62
2023-02-17T08:07:33.752Z,8.98
2023-02-17T08:10:19.037Z,9.27
2023-02-17T08:13:04.236Z,8.90
2023-02-17T08:15:32.778Z,8.56
2023-02-17T08:18:00.726Z,9.80
2023-02-17T08:20:27.888Z,9.59
2023-02-17T08:22:54.406Z,9.16
2023-02-17T08:25:20.944Z,10.38
2023-02-17T08:27:47.456Z,10.41
2023-02-17T08:30:14.115Z,10.48
2023-02-17T08:32:40.630Z,10.32
2023-02-17T08:35:07.204Z,9.29
2023-02-17T08:37:33.715Z,9.76
2023-02-17T08:40:00.364Z,9.75
2023-02-17T08:42:27.040Z,9.33
2023-02-17T08:44:53.591Z,9.12
2023-02-17T08:47:20.051Z,9.75
2023-02-17T08:49:46.545Z,9.98
2023-02-17T08:52:13.065Z,9.77
2023-02-17T08:54:39.657Z,10.64
2023-02-17T08:57:06.175Z,10.88
2023-02-17T08:59:32.722Z,11.72
2023-02-17T09:01:59.248Z,12.95
2023-02-17T09:04:25.976Z,12.65
2023-02-17T09:06:53.618Z,11.27
2023-02-17T09:09:22.784Z,10.82
2023-02-17T09:11:49.254Z,12.96
2023-02-17T09:14:15.667Z,12.68
2023-02-17T09:16:42.244Z,13.04
2023-02-17T09:19:08.894Z,12.98
2023-02-17T09:21:35.485Z,13.16
2023-02-17T09:24:01.972Z,12.80
2023-02-17T09:26:28.511Z,12.03
2023-02-17T09:28:55.109Z,12.15
2023-02-17T09:31:23.016Z,12.71
2023-02-17T09:33:50.023Z,13.41
2023-02-17T09:36:18.431Z,13.10
2023-02-17T09:38:45.070Z,14.20
2023-02-17T09:41:16.938Z,14.02
2023-02-17T09:43:43.959Z,13.62
2023-02-17T09:46:14.989Z,13.25
2023-02-17T09:48:42.661Z,13.51
2023-02-17T09:51:14.117Z,13.78
2023-02-17T09:54:02.917Z,14.53
2023-02-17T09:56:33.690Z,13.84
2023-02-17T09:59:02.214Z,14.99
2023-02-17T10:01:30.988Z,15.60
2023-02-17T10:04:02.313Z,16.02
2023-02-17T10:06:40.123Z,16.83
2023-02-17T10:09:18.336Z,16.31
2023-02-17T10:11:53.493Z,16.22
2023-02-17T10:14:28.479Z,15.87
2023-02-17T10:17:00.518Z,15.67
2023-02-17T10:19:32.356Z,16.74
2023-02-17T10:22:05.769Z,16.59
2023-02-17T10:24:32.266Z,16.45
2023-02-17T10:26:58.712Z,17.59
2023-02-17T10:29:25.164Z,17.26
2023-02-17T10:32:04.866Z,17.58
2023-02-17T10:34:36.140Z,17.99
2023-02-17T10:37:04.080Z,18.54
2023-02-17T10:39:50.206Z,19.03
2023-02-17T10:42:20.220Z,18.60
2023-02-17T10:44:48.465Z,17.37
2023-02-17T10:47:15.699Z,17.50
2023-02-17T10:49:45.772Z,16.77
2023-02-17T10:52:32.182Z,15.55
2023-02-17T10:55:20.849Z,16.28
2023-02-17T10:57:52.641Z,16.32
2023-02-17T11:00:19.440Z,16.32
2023-02-17T11:02:47.227Z,16.14
2023-02-17T11:05:27.660Z,15.84
2023-02-17T11:08:02.290Z,15.94
2023-02-17T11:10:36.709Z,16.26
2023-02-17T11:13:04.062Z,16.27
2023-02-17T11:15:43.712Z,15.98
2023-02-17T11:18:18.129Z,16.09
2023-02-17T11:20:45.081Z,16.08
2023-02-17T11:23:14.323Z,16.48
2023-02-17T11:25:42.204Z,16.38
2023-02-17T11:28:12.805Z,16.55
2023-02-17T11:30:40.584Z,16.54
2023-02-17T11:33:14.242Z,16.40
2023-02-17T11:35:41.645Z,16.79
2023-02-17T11:38:15.350Z,17.46
2023-02-17T11:40:51.397Z,16.92
2023-02-17T11:43:20.890Z,17.76
2023-02-17T11:45:56.315Z,17.42
2023-02-17T11:48:38.193Z,17.29
2023-02-17T11:51:13.811Z,16.31
2023-02-17T11:53:52.379Z,16.34
2023-02-17T11:56:22.498Z,17.09
2023-02-17T11:58:52.046Z,17.53
2023-02-17T12:01:18.560Z,18.05
2023-02-17T12:04:04.292Z,18.24
2023-02-17T12:06:43.210Z,17.31
2023-02-17T12:09:21.904Z,17.20
2023-02-17T12:12:07.040Z,17.85
2023-02-17T12:14:42.409Z,18.02
2023-02-17T12:17:24.204Z,18.33
2023-02-17T12:19:53.699Z,18.27
2023-02-17T12:22:39.090Z,18.19
2023-02-17T12:25:26.761Z,18.43
2023-02-17T12:28:00.473Z,18.44
2023-02-17T12:30:33.331Z,17.51
2023-02-17T12:33:15.877Z,17.54
2023-02-17T12:35:55.637Z,17.68
2023-02-17T12:38:25.459Z,18.64
2023-02-17T12:41:10.253Z,17.69
2023-02-17T12:43:40.894Z,17.67
2023-02-17T12:46:10.725Z,17.35
2023-02-17T12:48:59.620Z,17.48
2023-02-17T12:51:33.563Z,17.89
2023-02-17T12:54:00.016Z,18.34
2023-02-17T12:56:34.014Z,19.05
2023-02-17T12:59:23.777Z,18.77
2023-02-17T13:02:00.564Z,19.39
2023-02-17T13:04:28.457Z,19.31
2023-02-17T13:07:07.949Z,18.57
2023-02-17T13:09:36.469Z,18.47
2023-02-17T13:12:10.469Z,18.33
2023-02-17T13:14:42.225Z,18.46
2023-02-17T13:17:27.674Z,18.25
2023-02-17T13:20:09.553Z,18.58
2023-02-17T13:22:36.961Z,18.72
2023-02-17T13:25:03.834Z,18.98
2023-02-17T13:27:37.541Z,18.73
2023-02-17T13:30:22.749Z,18.14
2023-02-17T13:33:00.718Z,17.81
2023-02-17T13:35:27.174Z,17.82
2023-02-17T13:37:54.536Z,17.88
2023-02-17T13:40:22.317Z,17.47
2023-02-17T13:42:49.978Z,17.26
2023-02-17T13:45:45.931Z,17.33
2023-02-17T13:48:24.036Z,17.23
2023-02-17T13:50:58.309Z,17.39
2023-02-17T13:53:24.972Z,16.97
2023-02-17T13:55:52.114Z,16.67
2023-02-17T13:58:24.613Z,16.70
2023-02-17T14:00:52.497Z,16.54
2023-02-17T14:03:30.209Z,16.45
2023-02-17T14:05:57.930Z,16.47
2023-02-17T14:08:27.387Z,16.32
2023-02-17T14:10:54.068Z,16.27
2023-02-17T14:13:22.482Z,16.14
2023-02-17T14:15:59.365Z,16.17
2023-02-17T14:18:34.941Z,16.21
2023-02-17T14:21:09.341Z,16.14
2023-02-17T14:23:47.265Z,16.04
2023-02-17T14:26:15.793Z,15.98
2023-02-17T14:28:52.380Z,16.07
2023-02-17T14:31:19.841Z,15.91
2023-02-17T14:33:57.636Z,15.90
2023-02-17T14:36:42.461Z,16.01
2023-02-17T14:39:13.087Z,15.76
2023-02-17T14:41:39.581Z,15.95
2023-02-17T14:44:06.163Z,15.92
2023-02-17T14:46:33.074Z,15.72
2023-02-17T14:48:59.596Z,15.71
2023-02-17T14:51:32.183Z,15.65
2023-02-17T14:53:58.642Z,15.67
2023-02-17T14:56:26.720Z,15.69
2023-02-17T14:58:53.255Z,15.54
2023-02-17T15:01:20.691Z,15.40
2023-02-17T15:03:47.524Z,15.11
2023-02-17T15:06:15.342Z,14.60
2023-02-17T15:08:42.264Z,14.76
2023-02-17T15:11:13.809Z,14.90
2023-02-17T15:13:40.460Z,14.91
2023-02-17T15:16:08.203Z,14.80
2023-02-17T15:18:35.040Z,14.73
2023-02-17T15:21:01.528Z,14.83
2023-02-17T15:23:37.753Z,14.58
2023-02-17T15:26:05.834Z,14.27
2023-02-17T15:28:32.476Z,14.35
2023-02-17T15:30:58.966Z,14.21
2023-02-17T15:33:25.485Z,14.19
2023-02-17T15:35:56.246Z,13.98
2023-02-17T15:38:23.271Z,13.96
2023-02-17T15:40:50.054Z,13.79
2023-02-17T15:43:19.556Z,13.60
2023-02-17T15:45:46.330Z,13.65
2023-02-17T15:48:19.711Z,13.66
2023-02-17T15:50:46.191Z,13.58
2023-02-17T15:53:12.680Z,13.16
2023-02-17T15:55:39.404Z,13.16
2023-02-17T15:58:10.353Z,12.89
2023-02-17T16:00:36.909Z,12.72
2023-02-17T16:03:03.531Z,12.49
2023-02-17T16:05:30.510Z,12.65
2023-02-17T16:07:57.121Z,12.54
2023-02-17T16:10:27.121Z,12.41
2023-02-17T16:12:55.244Z,12.39
2023-02-17T16:15:23.025Z,12.46
2023-02-17T16:17:50.754Z,12.42
2023-02-17T16:20:22.052Z,12.27
2023-02-17T16:22:48.869Z,11.49
2023-02-17T16:25:16.000Z,11.60
2023-02-17T16:27:43.328Z,11.53
2023-02-17T16:30:16.771Z,11.61
2023-02-17T16:32:43.386Z,11.70
2023-02-17T16:35:13.915Z,11.43
2023-02-17T16:37:40.529Z,11.52
2023-02-17T16:40:14.880Z,11.63
2023-02-17T16:42:41.445Z,11.44
2023-02-17T16:45:13.747Z,11.24
2023-02-17T16:47:40.215Z,11.18
2023-02-17T16:50:08.521Z,11.23
2023-02-17T16:52:34.982Z,11.34
2023-02-17T16:55:01.436Z,11.53
2023-02-17T16:57:27.946Z,11.33
2023-02-17T16:59:54.559Z,11.11
2023-02-17T17:02:22.054Z,11.43
2023-02-17T17:04:48.611Z,10.98
2023-02-17T17:07:16.123Z,10.74
2023-02-17T17:09:45.263Z,10.68
2023-02-17T17:12:15.318Z,10.66
2023-02-17T17:14:41.884Z,10.40
2023-02-17T17:17:09.939Z,10.32
2023-02-17T17:19:36.348Z,10.35
2023-02-17T17:22:02.836Z,10.35
2023-02-17T17:24:30.673Z,10.29
2023-02-17T17:26:57.100Z,10.38
2023-02-17T17:29:23.535Z,10.43
2023-02-17T17:31:50.203Z,10.26
2023-02-17T17:34:16.767Z,10.37
2023-02-17T17:36:44.899Z,10.38
2023-02-17T17:39:14.459Z,10.25
2023-02-17T17:41:40.956Z,9.94
2023-02-17T17:44:10.084Z,10.07
2023-02-17T17:46:37.241Z,10.20
2023-02-17T17:49:05.929Z,10.21
2023-02-17T17:51:33.077Z,10.15
2023-02-17T17:53:59.721Z,10.12
2023-02-17T17:56:27.866Z,9.99
2023-02-17T17:58:54.953Z,9.90
2023-02-17T18:01:21.751Z,9.95
2023-02-17T18:03:48.849Z,9.86
2023-02-17T18:06:20.137Z,9.92
2023-02-17T18:08:47.595Z,9.90
2023-02-17T18:11:15.344Z,9.75
2023-02-17T18:13:42.383Z,9.30
2023-02-17T18:16:09.272Z,9.11
2023-02-17T18:18:36.801Z,9.20
2023-02-17T18:21:03.290Z,9.33
2023-02-17T18:23:29.728Z,9.40
2023-02-17T18:25:56.274Z,9.34
2023-02-17T18:28:22.750Z,9.20
2023-02-17T18:30:49.322Z,9.25
2023-02-17T18:33:15.836Z,9.12
2023-02-17T18:35:44.095Z,8.93
2023-02-17T18:38:10.776Z,8.79
2023-02-17T18:40:40.684Z,8.76
2023-02-17T18:43:07.656Z,8.72
2023-02-17T18:45:34.889Z,8.72
2023-02-17T18:48:01.363Z,8.79
2023-02-17T18:50:32.818Z,8.64
2023-02-17T18:52:59.889Z,8.56
2023-02-17T18:55:26.369Z,8.50
2023-02-17T18:57:54.063Z,8.63
2023-02-17T19:00:20.658Z,8.31
2023-02-17T19:02:47.336Z,8.35
2023-02-17T19:05:13.932Z,8.45
2023-02-17T19:07:40.421Z,8.28
2023-02-17T19:10:07.240Z,8.07
2023-02-17T19:12:34.241Z,8.06
2023-02-17T19:15:00.742Z,8.16
2023-02-17T19:17:27.240Z,8.21
2023-02-17T19:19:53.824Z,8.21
2023-02-17T19:22:20.473Z,8.21
2023-02-17T19:24:50.335Z,8.03
2023-02-17T19:27:16.812Z,8.12
2023-02-17T19:29:43.236Z,8.16
2023-02-17T19:32:09.748Z,8.19
2023-02-17T19:34:37.663Z,8.23
2023-02-17T19:37:04.568Z,7.85
2023-02-17T19:39:31.686Z,7.69
2023-02-17T19:41:58.139Z,7.84
2023-02-17T19:44:24.625Z,7.97
2023-02-17T19:46:51.178Z,7.95
2023-02-17T19:49:17.791Z,8.06
2023-02-17T19:51:44.385Z,8.18
2023-02-17T19:54:10.941Z,8.05
2023-02-17T19:56:38.872Z,7.88
2023-02-17T19:59:05.345Z,8.07
2023-02-17T20:01:32.583Z,8.15
2023-02-17T20:04:01.485Z,8.23
2023-02-17T20:06:29.729Z,8.10
2023-02-17T20:08:58.047Z,8.14
2023-02-17T20:11:24.943Z,8.06
2023-02-17T20:13:51.438Z,7.94
2023-02-17T20:16:18.027Z,7.92
2023-02-17T20:18:46.173Z,7.69
2023-02-17T20:21:16.938Z,7.67
2023-02-17T20:23:43.541Z,7.65
2023-02-17T20:26:11.402Z,7.54
2023-02-17T20:28:38.157Z,7.50
2023-02-17T20:31:05.800Z,7.46
2023-02-17T20:33:32.464Z,7.63
2023-02-17T20:35:58.910Z,7.77
2023-02-17T20:38:25.399Z,7.66
2023-02-17T20:40:52.193Z,7.45
2023-02-17T20:43:18.710Z,7.38
2023-02-17T20:45:45.652Z,7.39
2023-02-17T20:48:12.121Z,7.29
2023-02-17T20:50:38.811Z,7.21
2023-02-17T20:53:05.311Z,7.08
2023-02-17T20:55:31.812Z,7.33
2023-02-17T20:57:58.341Z,7.31
2023-02-17T21:00:25.784Z,7.24
2023-02-17T21:02:52.568Z,7.19
2023-02-17T21:05:19.639Z,6.81
2023-02-17T21:07:46.331Z,6.58
2023-02-17T21:10:15.874Z,6.72
2023-02-17T21:12:42.364Z,6.67
2023-02-17T21:15:09.157Z,6.47
2023-02-17T21:17:35.927Z,6.46
2023-02-17T21:20:02.800Z,6.42
2023-02-17T21:22:29.245Z,6.42
2023-02-17T21:24:55.796Z,6.61
2023-02-17T21:27:22.482Z,6.71
2023-02-17T21:29:48.952Z,6.77
2023-02-17T21:32:15.441Z,6.46
2023-02-17T21:34:42.096Z,6.38
2023-02-17T21:37:08.579Z,6.27
2023-02-17T21:39:35.511Z,6.34
2023-02-17T21:42:02.100Z,6.19
2023-02-17T21:44:47.134Z,6.35
2023-02-17T21:47:13.915Z,6.14
2023-02-17T21:49:40.445Z,6.33
2023-02-17T21:52:06.968Z,6.47
2023-02-17T21:54:33.425Z,6.40
2023-02-17T21:56:59.945Z,6.23
2023-02-17T21:59:26.408Z,6.30
2023-02-17T22:01:52.920Z,6.55
2023-02-17T22:04:20.056Z,6.33
2023-02-17T22:06:46.600Z,6.43
2023-02-17T22:09:14.804Z,6.27
2023-02-17T22:11:42.594Z,6.27
2023-02-17T22:14:12.077Z,6.05
2023-02-17T22:16:39.031Z,6.11
2023-02-17T22:19:06.522Z,6.24
2023-02-17T22:21:33.243Z,6.07
2023-02-17T22:24:00.927Z,6.19
2023-02-17T22:26:27.744Z,6.27
2023-02-17T22:28:54.651Z,6.10
2023-02-17T22:31:22.692Z,6.39
2023-02-17T22:33:49.688Z,6.53
2023-02-17T22:36:18.135Z,6.50
2023-02-17T22:38:44.583Z,6.42
2023-02-17T22:41:12.483Z,6.24
2023-02-17T22:43:39.780Z,6.34
2023-02-17T22:46:07.204Z,6.25
2023-02-17T22:48:35.204Z,6.35
2023-02-17T22:51:08.884Z,6.37
2023-02-17T22:53:36.286Z,6.19
2023-02-17T22:56:03.517Z,6.09
2023-02-17T22:58:30.115Z,6.14
2023-02-17T23:01:04.349Z,6.19
2023-02-17T23:03:30.919Z,6.16
2023-02-17T23:06:01.337Z,6.14
2023-02-17T23:08:27.812Z,6.09
2023-02-17T23:10:54.371Z,6.21
2023-02-17T23:13:21.038Z,6.21
2023-02-17T23:15:47.537Z,6.08
2023-02-17T23:18:15.452Z,6.06
2023-02-17T23:20:43.471Z,6.35
2023-02-17T23:23:10.032Z,6.44
2023-02-17T23:25:38.443Z,6.11
2023-02-17T23:28:06.092Z,6.09
2023-02-17T23:30:33.024Z,5.92
2023-02-17T23:33:00.012Z,6.13
2023-02-17T23:35:26.544Z,6.22
2023-02-17T23:37:53.044Z,6.19
2023-02-17T23:40:19.954Z,5.87
2023-02-17T23:42:46.593Z,5.92
2023-02-17T23:45:13.191Z,5.91
2023-02-17T23:47:39.620Z,5.99
2023-02-17T23:50:06.475Z,5.94
2023-02-17T23:52:33.624Z,6.09
2023-02-17T23:55:00.124Z,6.09
2023-02-17T23:57:27.701Z,6.10
2023-02-17T23:59:54.124Z,6.07
